Time;durP1;ratioP1;P1;durP2;ratioP2;P2;SDS_P1;SDS_P2;PMS_P1;PMS_P2;Temp;Humidity;BMP_temperature;BMP_pressure;BME280_temperature;BME280_humidity;BME280_pressure;Samples;Min_cycle;Max_cycle;Signal;HPM_P1;HPM_P2
2022/11/27 00:02:15;;;;;;;;;14.00;10.50;;;;;9.98;70.51;102072.34;4865149;29;45752;-64
2022/11/27 00:04:40;;;;;;;;;14.00;12.75;;;;;9.98;70.73;102066.13;4866894;29;45590;-64
2022/11/27 00:07:06;;;;;;;;;17.25;13.25;;;;;9.92;70.29;102059.09;4865172;29;45591;-64
2022/11/27 00:09:32;;;;;;;;;11.50;10.25;;;;;9.99;70.70;102076.78;4866109;29;52949;-64
2022/11/27 00:11:57;;;;;;;;;14.00;13.25;;;;;9.99;70.76;102073.25;4866703;29;45614;-64
2022/11/27 00:14:23;;;;;;;;;12.50;12.50;;;;;9.94;70.13;102064.38;4866518;29;45537;-64
2022/11/27 00:16:48;;;;;;;;;17.50;12.00;;;;;9.93;70.19;102060.84;4866639;29;45589;-64
2022/11/27 00:19:13;;;;;;;;;14.75;12.75;;;;;9.92;70.56;102056.41;4866576;29;45805;-64
2022/11/27 00:21:39;;;;;;;;;14.50;11.75;;;;;9.97;70.56;102045.69;4865628;29;45412;-63
2022/11/27 00:24:06;;;;;;;;;9.75;9.75;;;;;9.96;70.88;102057.28;4850590;29;45392;-64
2022/11/27 00:26:32;;;;;;;;;15.00;14.50;;;;;9.97;70.58;102051.00;4866596;29;45637;-64
2022/11/27 00:28:58;;;;;;;;;14.75;11.75;;;;;9.96;70.25;102047.47;4865673;29;45417;-64
2022/11/27 00:31:27;;;;;;;;;14.50;14.50;;;;;10.00;70.83;102051.88;4865661;29;45576;-63
2022/11/27 00:33:54;;;;;;;;;15.75;15.00;;;;;9.96;70.08;102030.59;4866350;29;45269;-64
2022/11/27 00:36:20;;;;;;;;;9.50;9.25;;;;;9.95;70.59;102023.47;4866289;29;45392;-64
2022/11/27 00:38:45;;;;;;;;;15.50;11.00;;;;;10.00;70.74;102029.66;4865964;29;45309;-64
2022/11/27 00:41:15;;;;;;;;;17.50;14.75;;;;;9.98;70.75;102019.00;4866482;29;45268;-64
2022/11/27 00:43:41;;;;;;;;;14.25;11.75;;;;;10.01;70.59;102031.44;4866178;29;45470;-63
2022/11/27 00:46:07;;;;;;;;;17.25;15.25;;;;;10.01;70.05;102024.31;4864914;29;45555;-63
2022/11/27 00:48:33;;;;;;;;;15.50;13.75;;;;;9.95;70.70;102008.34;4864816;29;45336;-64
2022/11/27 00:51:05;;;;;;;;;11.00;10.50;;;;;10.02;70.34;102019.84;4866034;29;45579;-64
2022/11/27 00:53:32;;;;;;;;;13.75;13.25;;;;;9.99;70.30;102009.22;4854432;29;45401;-64
2022/11/27 00:55:58;;;;;;;;;14.25;11.00;;;;;10.01;70.59;102008.28;4866008;29;45856;-64
2022/11/27 00:58:25;;;;;;;;;12.25;11.00;;;;;10.02;70.59;102002.06;4853628;29;46126;-64
2022/11/27 01:00:58;;;;;;;;;10.75;9.50;;;;;10.04;70.05;102010.06;4865325;29;45434;-64
2022/11/27 01:03:24;;;;;;;;;15.75;11.00;;;;;10.00;70.01;101994.97;4866154;29;45333;-64
2022/11/27 01:05:49;;;;;;;;;13.75;11.00;;;;;10.01;69.97;102002.09;4865850;29;45545;-64
2022/11/27 01:08:15;;;;;;;;;10.50;9.75;;;;;9.94;70.06;101987.94;4865498;29;45367;-63
2022/11/27 01:10:56;;;;;;;;;15.75;11.00;;;;;9.94;69.96;101987.03;4865960;29;45280;-64
2022/11/27 01:13:28;;;;;;;;;11.75;11.00;;;;;9.94;70.19;101993.25;4856782;29;45415;-63
2022/11/27 01:15:59;;;;;;;;;9.75;8.75;;;;;9.97;69.99;101990.56;4865311;29;45506;-64
2022/11/27 01:18:24;;;;;;;;;12.25;9.00;;;;;9.94;70.41;101990.59;4865800;29;46422;-64
2022/11/27 01:20:52;;;;;;;;;10.25;10.00;;;;;9.89;70.30;101978.19;4865613;29;45377;-64
2022/11/27 01:23:18;;;;;;;;;12.75;12.75;;;;;9.87;70.01;101980.88;4848509;29;45481;-64
2022/11/27 01:25:44;;;;;;;;;16.50;14.50;;;;;9.88;70.30;101990.66;4865487;29;45401;-64
2022/11/27 01:28:09;;;;;;;;;15.00;11.00;;;;;9.85;70.13;101988.00;4865751;29;45382;-63
2022/11/27 01:30:37;;;;;;;;;9.00;7.75;;;;;9.77;69.92;101984.53;4864738;29;45450;-64
2022/11/27 01:33:02;;;;;;;;;9.75;9.75;;;;;9.82;70.50;101986.25;4865878;29;45342;-64
2022/11/27 01:35:27;;;;;;;;;11.50;9.25;;;;;9.83;70.05;101982.69;4848254;29;45503;-64
2022/11/27 01:37:53;;;;;;;;;9.00;9.00;;;;;9.79;70.24;101961.41;4865099;29;45527;-64
2022/11/27 01:40:18;;;;;;;;;11.00;10.50;;;;;9.75;70.04;101952.53;4865055;29;48218;-64
2022/11/27 01:42:43;;;;;;;;;5.50;3.75;;;;;9.83;70.47;101957.81;4865540;29;45386;-63
2022/11/27 01:45:13;;;;;;;;;11.50;10.00;;;;;9.87;70.18;101962.19;4864639;29;45298;-64
2022/11/27 01:47:48;;;;;;;;;11.75;11.75;;;;;9.87;70.39;101950.66;4864610;29;45554;-64
2022/11/27 01:50:36;;;;;;;;;10.50;8.50;;;;;9.94;70.22;101966.59;4836669;29;45362;-63
2022/11/27 01:53:07;;;;;;;;;13.50;12.25;;;;;9.94;70.47;101963.00;4864827;29;45404;-63
2022/11/27 01:55:41;;;;;;;;;12.25;9.50;;;;;9.88;70.43;101960.44;4865321;29;45414;-63
2022/11/27 01:58:12;;;;;;;;;10.25;9.00;;;;;9.89;70.20;101968.41;4852754;29;45593;-64
2022/11/27 02:00:38;;;;;;;;;12.75;8.50;;;;;9.91;70.11;101963.94;4864495;29;45412;-63
2022/11/27 02:03:04;;;;;;;;;10.50;9.25;;;;;9.92;70.35;101959.50;4865195;29;45265;-64
2022/11/27 02:05:30;;;;;;;;;11.00;10.50;;;;;9.94;70.13;101950.59;4865040;29;45504;-63
2022/11/27 02:07:57;;;;;;;;;16.75;10.50;;;;;9.95;69.93;101948.78;4864514;29;45429;-64
2022/11/27 02:10:53;;;;;;;;;12.50;10.00;;;;;9.94;69.92;101945.25;4865112;29;45673;-63
2022/11/27 02:13:29;;;;;;;;;9.00;8.00;;;;;9.94;70.41;101947.00;4845314;29;45404;-63
2022/11/27 02:16:10;;;;;;;;;8.25;8.25;;;;;9.94;70.01;101945.25;4864817;29;45380;-63
2022/11/27 02:18:49;;;;;;;;;8.00;8.00;;;;;9.88;69.90;101949.75;4864182;29;45765;-64
2022/11/27 02:21:23;;;;;;;;;10.25;7.00;;;;;9.90;70.40;101945.28;4859179;29;45439;-63
2022/11/27 02:24:11;;;;;;;;;9.50;7.50;;;;;9.91;70.19;101942.63;4864742;29;45434;-64
2022/11/27 02:26:53;;;;;;;;;9.75;8.50;;;;;9.91;70.26;101947.94;4865078;29;45310;-63
2022/11/27 02:29:26;;;;;;;;;9.75;9.50;;;;;9.90;70.05;101947.97;4853043;29;45393;-63
2022/11/27 02:31:58;;;;;;;;;8.25;8.25;;;;;9.89;69.86;101947.09;4862956;29;45322;-64
2022/11/27 02:34:34;;;;;;;;;9.50;8.00;;;;;9.91;70.13;101950.59;4839365;29;45362;-64
2022/11/27 02:37:33;;;;;;;;;5.00;4.50;;;;;9.95;70.07;101943.47;4861241;29;45469;-63
2022/11/27 02:40:05;;;;;;;;;12.00;9.00;;;;;9.96;69.94;101940.78;4863505;29;45445;-63
2022/11/27 02:42:55;;;;;;;;;10.50;9.50;;;;;9.94;69.78;101939.91;4864652;29;45651;-63
2022/11/27 02:45:27;;;;;;;;;7.25;7.25;;;;;9.94;69.77;101939.91;4864741;29;45493;-63
2022/11/27 02:47:55;;;;;;;;;11.25;9.00;;;;;9.91;69.94;101937.28;4864629;29;45518;-64
2022/11/27 02:50:24;;;;;;;;;10.25;9.00;;;;;9.90;70.35;101937.28;4864774;29;45443;-64
2022/11/27 02:52:53;;;;;;;;;7.75;7.00;;;;;9.93;70.11;101934.59;4864276;29;45441;-63
2022/11/27 02:55:23;;;;;;;;;8.25;7.75;;;;;9.92;69.70;101925.72;4848039;29;45432;-63
2022/11/27 02:57:52;;;;;;;;;9.00;7.75;;;;;9.92;69.81;101923.06;4838140;29;45502;-63
2022/11/27 03:00:18;;;;;;;;;8.25;8.25;;;;;9.89;69.61;101912.41;4854404;29;46712;-64
2022/11/27 03:02:51;;;;;;;;;5.00;5.00;;;;;9.89;70.40;101903.50;4866714;29;45618;-64
2022/11/27 03:05:21;;;;;;;;;9.00;8.75;;;;;9.78;70.50;101876.97;4867268;29;45487;-63
2022/11/27 03:08:00;;;;;;;;;10.50;7.75;;;;;9.87;70.34;101889.31;4867230;29;45518;-63
2022/11/27 03:10:33;;;;;;;;;4.25;4.25;;;;;9.89;69.82;101893.75;4856972;29;48553;-63
2022/11/27 03:13:00;;;;;;;;;9.25;7.00;;;;;9.83;70.08;101884.00;4867501;29;45379;-64
2022/11/27 03:15:32;;;;;;;;;6.00;6.00;;;;;9.82;70.09;101884.94;4867928;29;45270;-63
2022/11/27 03:18:27;;;;;;;;;7.00;6.50;;;;;9.81;69.60;101890.28;4867658;29;45266;-63
2022/11/27 03:21:04;;;;;;;;;7.25;4.75;;;;;9.74;70.29;101888.56;4867485;29;45365;-63
2022/11/27 03:23:29;;;;;;;;;7.00;7.00;;;;;9.72;69.88;101883.25;4866498;29;45435;-63
2022/11/27 03:25:55;;;;;;;;;7.50;7.50;;;;;9.70;70.09;101878.84;4867544;29;45505;-63
2022/11/27 03:28:21;;;;;;;;;9.75;7.50;;;;;9.67;70.32;101870.84;4867456;29;45270;-64
2022/11/27 03:30:46;;;;;;;;;11.50;6.00;;;;;9.70;70.78;101873.50;4862028;29;47029;-63
2022/11/27 03:33:12;;;;;;;;;8.00;6.50;;;;;9.71;70.62;101868.16;4859527;29;45434;-63
2022/11/27 03:35:37;;;;;;;;;9.50;8.00;;;;;9.69;70.58;101856.63;4867112;29;45312;-64
2022/11/27 03:38:03;;;;;;;;;7.75;7.50;;;;;9.71;70.22;101853.94;4867004;29;45377;-63
2022/11/27 03:40:53;;;;;;;;;4.50;4.50;;;;;9.68;70.68;101844.19;4849244;29;47088;-63
2022/11/27 03:43:26;;;;;;;;;10.50;7.50;;;;;9.69;70.21;101853.06;4849076;29;46249;-63
2022/11/27 03:46:10;;;;;;;;;8.75;5.50;;;;;9.66;70.15;101846.00;4866479;29;45413;-64
2022/11/27 03:48:50;;;;;;;;;8.00;7.50;;;;;9.72;70.72;101845.03;4866211;29;45666;-63
2022/11/27 03:51:25;;;;;;;;;8.00;8.00;;;;;9.67;70.62;101837.06;4865844;29;45361;-64
2022/11/27 03:54:18;;;;;;;;;4.50;3.50;;;;;9.68;70.34;101833.53;4864677;29;45334;-63
2022/11/27 03:57:03;;;;;;;;;7.00;7.00;;;;;9.54;70.79;101806.13;4845053;29;45427;-64
2022/11/27 03:59:34;;;;;;;;;6.75;6.50;;;;;9.64;70.46;101814.00;4859789;29;45331;-63
2022/11/27 04:02:00;;;;;;;;;8.00;6.75;;;;;9.56;70.56;101807.88;4854702;29;45612;-64
2022/11/27 04:04:25;;;;;;;;;8.50;8.25;;;;;9.65;70.43;101828.22;4865552;29;45483;-63
2022/11/27 04:06:50;;;;;;;;;7.75;7.25;;;;;9.64;70.43;101827.34;4865013;29;48540;-63
2022/11/27 04:09:16;;;;;;;;;7.00;5.25;;;;;9.63;70.40;101824.69;4865559;29;45431;-63
2022/11/27 04:11:41;;;;;;;;;7.75;5.25;;;;;9.67;70.61;101826.41;4865548;29;45485;-64
2022/11/27 04:14:06;;;;;;;;;7.75;5.25;;;;;9.57;71.03;101825.66;4865705;29;45370;-63
2022/11/27 04:16:32;;;;;;;;;8.00;5.00;;;;;9.67;70.61;101829.06;4865589;29;45434;-63
2022/11/27 04:18:57;;;;;;;;;4.25;4.00;;;;;9.43;70.59;101795.59;4849063;29;45441;-64
2022/11/27 04:21:23;;;;;;;;;7.25;6.75;;;;;9.34;70.69;101785.91;4864887;29;45440;-64
2022/11/27 04:23:48;;;;;;;;;7.25;5.50;;;;;9.58;70.45;101821.19;4848279;29;45444;-64
2022/11/27 04:26:13;;;;;;;;;9.00;9.00;;;;;9.63;70.58;101828.22;4865833;29;45410;-63
2022/11/27 04:28:39;;;;;;;;;8.50;8.50;;;;;9.60;70.72;101820.25;4865440;29;45284;-63
2022/11/27 04:31:04;;;;;;;;;6.75;5.00;;;;;9.62;70.92;101823.81;4864343;29;45947;-64
2022/11/27 04:33:30;;;;;;;;;0.75;0.00;;;;;9.57;70.82;101808.75;4848225;29;45640;-63
2022/11/27 04:35:55;;;;;;;;;6.00;5.50;;;;;9.38;70.95;101768.97;4848693;29;45373;-64
2022/11/27 04:38:21;;;;;;;;;7.25;6.50;;;;;9.41;70.41;101770.75;4826237;29;1145599;-64
2022/11/27 04:40:47;;;;;;;;;8.25;7.00;;;;;9.60;70.69;101809.59;4866328;29;46224;-64
2022/11/27 04:43:12;;;;;;;;;7.00;7.00;;;;;9.51;71.05;101784.84;4866381;29;45775;-63
2022/11/27 04:45:38;;;;;;;;;6.75;6.50;;;;;9.61;71.21;101806.06;4866580;29;45355;-64
2022/11/27 04:48:04;;;;;;;;;8.25;7.50;;;;;9.61;71.26;101802.50;4866169;29;45421;-64
2022/11/27 04:50:29;;;;;;;;;7.25;7.25;;;;;9.51;70.84;101782.19;4865011;29;47387;-64
2022/11/27 04:52:54;;;;;;;;;8.00;8.00;;;;;9.54;71.05;101783.03;4865181;29;45376;-63
2022/11/27 04:55:20;;;;;;;;;7.50;7.00;;;;;9.48;70.88;101766.22;4866299;29;45875;-64
2022/11/27 04:57:46;;;;;;;;;6.75;6.75;;;;;9.48;71.23;101767.09;4837193;29;45556;-64
2022/11/27 05:00:11;;;;;;;;;5.50;5.25;;;;;9.52;71.37;101766.19;4864752;29;45487;-63
2022/11/27 05:02:37;;;;;;;;;6.75;5.00;;;;;9.59;71.38;101777.66;4849060;29;45298;-63
2022/11/27 05:05:03;;;;;;;;;6.50;6.50;;;;;9.53;70.92;101772.38;4853749;29;45301;-64
2022/11/27 05:07:28;;;;;;;;;8.50;7.50;;;;;9.52;71.40;101758.19;4865553;29;45441;-63
2022/11/27 05:09:53;;;;;;;;;8.25;7.25;;;;;9.51;71.02;101756.41;4865829;29;46415;-64
2022/11/27 05:12:19;;;;;;;;;10.00;10.00;;;;;9.60;71.62;101763.41;4865832;29;45453;-64
2022/11/27 05:14:44;;;;;;;;;7.25;7.25;;;;;9.59;70.83;101757.22;4866037;29;45265;-63
2022/11/27 05:17:09;;;;;;;;;7.75;7.00;;;;;9.60;71.45;101750.09;4865919;29;45715;-63
2022/11/27 05:19:35;;;;;;;;;8.50;6.00;;;;;9.58;71.15;101739.44;4864806;29;45539;-64
2022/11/27 05:22:01;;;;;;;;;7.25;7.25;;;;;9.60;71.28;101740.28;4865014;29;45403;-63
2022/11/27 05:24:27;;;;;;;;;10.00;8.00;;;;;9.60;71.34;101750.97;4848513;29;45709;-64
2022/11/27 05:26:54;;;;;;;;;10.00;8.75;;;;;9.39;70.91;101717.47;4865674;29;45789;-63
2022/11/27 05:29:20;;;;;;;;;9.00;7.00;;;;;9.56;71.56;101745.72;4847990;29;48136;-64
2022/11/27 05:31:46;;;;;;;;;7.50;7.50;;;;;9.53;71.53;101743.06;4865654;29;45487;-64
2022/11/27 05:34:12;;;;;;;;;9.50;8.00;;;;;9.53;71.63;101748.41;4862471;29;45399;-64
2022/11/27 05:36:37;;;;;;;;;8.25;7.50;;;;;9.58;71.39;101754.56;4865330;29;45465;-63
2022/11/27 05:39:05;;;;;;;;;7.75;7.50;;;;;9.48;71.23;101745.78;4865192;29;45322;-63
2022/11/27 05:41:32;;;;;;;;;8.00;7.00;;;;;9.48;71.28;101742.25;4865417;29;45341;-63
2022/11/27 05:43:57;;;;;;;;;6.75;6.50;;;;;9.36;71.57;101720.16;4865718;29;45447;-64
2022/11/27 05:46:22;;;;;;;;;7.50;7.00;;;;;9.47;71.19;101741.34;4848583;29;46733;-63
2022/11/27 05:48:48;;;;;;;;;8.75;7.00;;;;;9.54;71.82;101742.16;4865367;29;45477;-64
2022/11/27 05:51:15;;;;;;;;;7.00;5.00;;;;;9.49;71.51;101733.31;4847607;29;46039;-63
2022/11/27 05:53:40;;;;;;;;;12.00;8.00;;;;;9.56;71.91;101735.91;4865229;29;45398;-63
2022/11/27 05:56:11;;;;;;;;;10.25;7.25;;;;;9.51;71.34;101723.56;4864974;29;45587;-64
2022/11/27 05:58:37;;;;;;;;;8.00;7.75;;;;;9.49;70.93;101706.69;4852790;29;46086;-63
2022/11/27 06:01:03;;;;;;;;;8.50;5.00;;;;;9.61;71.44;101734.06;4865177;29;45526;-64
2022/11/27 06:03:29;;;;;;;;;9.75;7.00;;;;;9.46;71.21;101723.59;4864996;29;45381;-64
2022/11/27 06:05:55;;;;;;;;;8.25;8.25;;;;;9.56;71.71;101735.91;4864860;29;45445;-63
2022/11/27 06:08:21;;;;;;;;;9.75;7.25;;;;;9.53;71.49;101737.75;4864734;29;46533;-64
2022/11/27 06:10:47;;;;;;;;;12.25;8.50;;;;;9.59;71.37;101737.69;4865065;29;45456;-64
2022/11/27 06:13:13;;;;;;;;;6.50;5.25;;;;;9.48;71.43;101731.59;4848429;29;45413;-64
2022/11/27 06:15:39;;;;;;;;;7.00;7.00;;;;;9.54;71.85;101735.06;4861059;29;46209;-64
2022/11/27 06:18:06;;;;;;;;;8.00;7.25;;;;;9.48;72.01;101721.78;4865122;29;45430;-63
2022/11/27 06:20:31;;;;;;;;;7.50;7.50;;;;;9.47;72.01;101709.34;4863696;29;45470;-63
2022/11/27 06:22:57;;;;;;;;;7.00;6.75;;;;;9.59;71.48;101729.69;4863543;29;45627;-63
2022/11/27 06:25:24;;;;;;;;;5.75;4.75;;;;;9.51;71.65;101716.44;4860485;29;45742;-63
2022/11/27 06:27:50;;;;;;;;;5.00;5.00;;;;;9.58;71.74;101720.78;4864847;29;45492;-63
2022/11/27 06:30:15;;;;;;;;;7.00;7.00;;;;;9.50;71.96;101709.31;4864662;29;45417;-63
2022/11/27 06:32:41;;;;;;;;;6.50;6.50;;;;;9.58;71.94;101728.78;4864800;29;45492;-63
2022/11/27 06:35:07;;;;;;;;;7.75;7.75;;;;;9.56;71.65;101716.38;4847832;29;45325;-63
2022/11/27 06:37:32;;;;;;;;;9.00;8.00;;;;;9.54;71.65;101695.06;4864267;29;45514;-63
2022/11/27 06:39:58;;;;;;;;;8.25;8.25;;;;;9.52;71.92;101694.22;4864653;29;45245;-63
2022/11/27 06:42:23;;;;;;;;;8.00;8.00;;;;;9.59;71.74;101698.56;4864891;29;45349;-63
2022/11/27 06:44:49;;;;;;;;;8.25;6.00;;;;;9.48;71.63;101679.16;4864652;29;45249;-63
2022/11/27 06:47:14;;;;;;;;;8.50;5.75;;;;;9.51;71.42;101679.13;4864571;29;45305;-63
2022/11/27 06:49:39;;;;;;;;;6.00;6.00;;;;;9.58;71.92;101693.25;4863200;29;45588;-63
2022/11/27 06:52:05;;;;;;;;;10.50;8.25;;;;;9.60;71.78;101692.31;4863214;29;45322;-63
2022/11/27 06:54:30;;;;;;;;;8.00;5.00;;;;;9.59;71.73;101682.56;4847049;29;45395;-63
2022/11/27 06:56:57;;;;;;;;;8.25;8.00;;;;;9.67;72.19;101692.25;4841941;29;47133;-63
2022/11/27 06:59:23;;;;;;;;;8.75;7.25;;;;;9.59;72.04;101669.25;4858010;29;45704;-63
2022/11/27 07:01:48;;;;;;;;;9.00;8.25;;;;;9.66;71.93;101687.81;4864513;29;45396;-64
2022/11/27 07:04:14;;;;;;;;;11.00;7.75;;;;;9.55;71.75;101671.97;4864509;29;45620;-63
2022/11/27 07:06:40;;;;;;;;;10.75;7.75;;;;;9.66;71.60;101685.16;4863987;29;45456;-64
2022/11/27 07:09:07;;;;;;;;;7.25;7.25;;;;;9.52;71.73;101662.25;4864325;29;45657;-63
2022/11/27 07:11:33;;;;;;;;;9.25;9.25;;;;;9.66;71.60;101682.50;4864535;29;45304;-63
2022/11/27 07:14:01;;;;;;;;;10.25;5.00;;;;;9.56;71.79;101655.06;4847269;29;45838;-63
2022/11/27 07:16:28;;;;;;;;;11.25;9.25;;;;;9.66;72.23;101675.38;4863437;29;45440;-64
2022/11/27 07:18:56;;;;;;;;;12.25;9.25;;;;;9.58;72.12;101653.25;4862994;29;45372;-64
2022/11/27 07:21:23;;;;;;;;;8.00;7.25;;;;;9.62;72.17;101655.88;4864090;29;45316;-64
2022/11/27 07:23:49;;;;;;;;;9.00;8.00;;;;;9.59;71.73;101647.91;4863398;29;45519;-63
2022/11/27 07:26:20;;;;;;;;;8.25;6.00;;;;;9.63;71.83;101646.94;4861758;29;45421;-65
2022/11/27 07:28:46;;;;;;;;;9.50;9.50;;;;;9.48;72.37;101625.84;4847208;29;45552;-66
2022/11/27 07:31:13;;;;;;;;;9.75;9.00;;;;;9.48;72.06;101627.66;4868963;29;45579;-64
2022/11/27 07:33:38;;;;;;;;;9.50;7.25;;;;;9.64;72.10;101655.84;4861830;29;45326;-65
2022/11/27 07:36:06;;;;;;;;;8.75;7.25;;;;;9.73;72.14;101673.50;4861732;29;45493;-65
2022/11/27 07:38:31;;;;;;;;;8.00;8.00;;;;;9.68;72.17;101672.69;4853100;29;45777;-65
2022/11/27 07:41:02;;;;;;;;;9.50;8.50;;;;;9.67;72.06;101663.78;4863371;29;47367;-66
2022/11/27 07:43:28;;;;;;;;;10.50;9.00;;;;;9.62;72.04;101665.63;4865798;29;45694;-66
2022/11/27 07:45:54;;;;;;;;;9.25;9.00;;;;;9.59;72.11;101653.25;4848563;29;48370;-66
2022/11/27 07:48:19;;;;;;;;;10.00;9.00;;;;;9.49;72.45;101619.63;4848547;29;45317;-65
2022/11/27 07:50:45;;;;;;;;;10.50;10.00;;;;;9.79;71.94;101674.28;4866182;29;45585;-66
2022/11/27 07:53:10;;;;;;;;;8.75;8.75;;;;;9.71;72.45;101657.53;4865527;29;45568;-66
2022/11/27 07:55:39;;;;;;;;;5.50;5.50;;;;;9.72;72.45;101666.38;4865544;29;45499;-66
2022/11/27 07:58:06;;;;;;;;;9.25;9.25;;;;;9.74;72.41;101672.56;4865825;29;45627;-66
2022/11/27 08:00:32;;;;;;;;;10.25;8.00;;;;;9.64;72.27;101651.41;4850138;29;45469;-65
2022/11/27 08:02:58;;;;;;;;;8.25;8.25;;;;;9.62;72.96;101650.53;4866940;29;45343;-66
2022/11/27 08:05:24;;;;;;;;;9.00;9.00;;;;;9.71;72.48;101651.31;4848351;29;47116;-66
2022/11/27 08:07:49;;;;;;;;;10.25;9.00;;;;;9.74;72.62;101664.56;4861170;29;45391;-65
2022/11/27 08:10:14;;;;;;;;;8.75;8.00;;;;;9.78;72.61;101674.31;4848650;29;45319;-65
2022/11/27 08:12:40;;;;;;;;;8.25;8.25;;;;;9.57;72.50;101627.50;4866462;29;45332;-65
2022/11/27 08:15:06;;;;;;;;;10.00;9.00;;;;;9.83;73.01;101664.47;4864143;29;45639;-65
2022/11/27 08:17:31;;;;;;;;;9.50;9.00;;;;;9.71;73.22;101638.84;4866323;29;45375;-66
2022/11/27 08:19:57;;;;;;;;;12.25;9.75;;;;;9.83;72.57;101645.78;4848926;29;46171;-63
2022/11/27 08:22:22;;;;;;;;;14.50;10.00;;;;;9.88;72.78;101651.94;4865392;29;45520;-64
2022/11/27 08:24:47;;;;;;;;;15.25;9.50;;;;;9.93;72.89;101655.41;4853764;29;46802;-64
2022/11/27 08:27:15;;;;;;;;;10.50;8.00;;;;;9.80;72.72;101633.38;4865873;29;45777;-64
2022/11/27 08:29:40;;;;;;;;;6.50;6.00;;;;;9.88;72.77;101649.28;4866728;29;45417;-64
2022/11/27 08:32:06;;;;;;;;;14.75;10.25;;;;;9.87;73.12;101644.84;4866226;29;45586;-64
2022/11/27 08:34:32;;;;;;;;;9.00;7.00;;;;;9.67;73.15;101602.47;4866078;29;45485;-64
2022/11/27 08:36:57;;;;;;;;;9.50;8.00;;;;;9.87;72.53;101636.81;4865160;29;45493;-64
2022/11/27 08:39:25;;;;;;;;;9.50;7.75;;;;;9.92;73.58;101650.09;4862315;29;45553;-64
2022/11/27 08:41:50;;;;;;;;;16.75;12.75;;;;;9.73;73.20;101612.19;4863520;29;45651;-64
2022/11/27 08:44:15;;;;;;;;;12.50;9.75;;;;;9.62;73.39;101599.00;4863639;29;45469;-64
2022/11/27 08:46:42;;;;;;;;;7.75;7.00;;;;;9.82;73.59;101628.03;4865954;29;45285;-64
2022/11/27 08:49:07;;;;;;;;;15.00;10.00;;;;;9.87;72.90;101631.50;4866216;29;45432;-64
2022/11/27 08:51:32;;;;;;;;;8.50;5.50;;;;;9.77;73.68;101603.22;4863982;29;45440;-64
2022/11/27 08:53:58;;;;;;;;;10.25;9.75;;;;;9.92;73.26;101623.44;4845334;29;46916;-63
2022/11/27 08:56:24;;;;;;;;;9.25;9.25;;;;;9.93;73.37;101623.41;4863357;29;45527;-63
2022/11/27 08:58:50;;;;;;;;;7.25;7.00;;;;;9.84;73.51;101599.56;4866282;29;45395;-64
2022/11/27 09:01:35;;;;;;;;;9.00;9.00;;;;;9.94;73.49;101617.19;4865033;29;45562;-64
2022/11/27 09:04:00;;;;;;;;;11.00;8.00;;;;;9.80;73.43;101593.38;4845913;29;47208;-63
2022/11/27 09:06:30;;;;;;;;;11.00;10.75;;;;;9.88;73.97;101595.06;4842634;29;45614;-64
2022/11/27 09:08:57;;;;;;;;;11.25;9.00;;;;;9.92;73.48;101605.66;4846037;29;45465;-63
2022/11/27 09:11:22;;;;;;;;;9.25;8.25;;;;;9.78;74.05;101573.88;4852188;29;45542;-64
2022/11/27 09:13:48;;;;;;;;;11.00;10.75;;;;;9.81;73.69;101573.81;4848131;29;48115;-64
2022/11/27 09:16:16;;;;;;;;;8.75;8.75;;;;;9.89;73.52;101592.38;4865607;29;45324;-64
2022/11/27 09:18:46;;;;;;;;;11.00;11.00;;;;;9.87;73.90;101588.81;4864550;29;45574;-64
2022/11/27 09:21:13;;;;;;;;;11.75;11.00;;;;;9.87;74.05;101586.16;4858838;29;45686;-64
2022/11/27 09:23:39;;;;;;;;;10.25;9.75;;;;;9.84;73.92;101570.25;4846860;29;48363;-64
2022/11/27 09:26:08;;;;;;;;;10.50;9.25;;;;;9.98;73.77;101594.88;4865517;29;45296;-64
2022/11/27 09:28:34;;;;;;;;;10.00;10.00;;;;;9.92;73.69;101583.44;4865991;29;45355;-63
2022/11/27 09:31:01;;;;;;;;;12.00;10.50;;;;;9.89;73.61;101581.72;4862257;29;45404;-64
2022/11/27 09:33:30;;;;;;;;;11.75;9.00;;;;;9.91;73.75;101574.56;4863543;29;45608;-63
2022/11/27 09:35:55;;;;;;;;;9.75;8.00;;;;;9.99;73.85;101569.97;4847840;29;45844;-63
2022/11/27 09:38:22;;;;;;;;;10.50;10.50;;;;;9.90;73.84;101563.91;4865135;29;45329;-64
2022/11/27 09:40:50;;;;;;;;;12.75;10.75;;;;;10.00;73.61;101573.50;4856364;29;45753;-64
2022/11/27 09:43:19;;;;;;;;;15.25;11.00;;;;;10.02;73.39;101563.69;4854450;29;45496;-64
2022/11/27 09:45:53;;;;;;;;;9.50;9.00;;;;;10.02;74.07;101551.25;4865075;29;45340;-64
2022/11/27 09:48:34;;;;;;;;;12.50;11.50;;;;;9.97;73.59;101526.47;4848506;29;45749;-64
2022/11/27 09:51:08;;;;;;;;;9.00;9.00;;;;;9.94;73.91;101515.84;4863760;29;45458;-64
2022/11/27 09:53:50;;;;;;;;;11.25;10.00;;;;;9.89;73.30;101504.38;4848097;29;47936;-64
2022/11/27 09:56:17;;;;;;;;;9.25;7.25;;;;;10.00;73.79;101513.03;4852656;29;45431;-64
2022/11/27 09:58:52;;;;;;;;;15.75;9.00;;;;;9.97;73.29;101510.44;4864215;29;45455;-65
2022/11/27 10:01:22;;;;;;;;;13.75;10.50;;;;;9.94;74.16;101510.50;4863414;29;45412;-64
2022/11/27 10:03:48;;;;;;;;;12.75;10.75;;;;;9.91;74.54;101510.56;4863260;29;47417;-64
2022/11/27 10:06:32;;;;;;;;;11.00;9.75;;;;;10.01;73.67;101524.59;4863427;29;45461;-64
2022/11/27 10:09:07;;;;;;;;;15.75;11.25;;;;;10.02;74.10;101524.59;4860161;29;45568;-64
2022/11/27 10:11:46;;;;;;;;;7.00;7.00;;;;;10.05;73.86;101533.44;4863848;29;46952;-64
2022/11/27 10:14:33;;;;;;;;;9.25;8.25;;;;;9.96;73.98;101515.81;4865021;29;46314;-64
2022/11/27 10:17:05;;;;;;;;;20.50;14.75;;;;;10.04;73.82;101526.31;4852745;29;45373;-64
2022/11/27 10:19:56;;;;;;;;;11.75;10.75;;;;;9.90;73.49;101508.78;4864132;29;45566;-64
2022/11/27 10:22:56;;;;;;;;;9.00;9.00;;;;;10.15;73.99;101533.22;4839518;29;46191;-64
2022/11/27 10:25:33;;;;;;;;;10.75;9.25;;;;;9.94;73.46;101497.16;4862449;29;45546;-64
2022/11/27 10:28:17;;;;;;;;;13.00;10.75;;;;;10.17;73.58;101523.44;4864668;29;45345;-64
2022/11/27 10:31:21;;;;;;;;;15.00;11.50;;;;;10.19;73.88;101513.59;4864627;29;45470;-64
2022/11/27 10:33:55;;;;;;;;;11.75;10.75;;;;;10.22;73.46;101519.78;4833937;29;45388;-64
2022/11/27 10:36:38;;;;;;;;;14.25;11.75;;;;;10.07;73.42;101480.94;4852249;29;46549;-64
2022/11/27 10:39:13;;;;;;;;;11.25;11.00;;;;;10.19;73.04;101494.94;4864122;29;45681;-64
2022/11/27 10:41:50;;;;;;;;;9.25;9.25;;;;;10.14;73.47;101487.91;4864904;29;45480;-65
2022/11/27 10:44:39;;;;;;;;;11.00;11.00;;;;;10.20;73.77;101482.47;4849053;29;45650;-65
2022/11/27 10:47:08;;;;;;;;;11.25;11.25;;;;;10.19;73.48;101475.38;4859004;29;46236;-65
2022/11/27 10:49:39;;;;;;;;;15.25;14.25;;;;;10.28;73.82;101487.66;4862007;29;45837;-65
2022/11/27 10:52:05;;;;;;;;;12.00;11.00;;;;;10.16;73.33;101454.97;4858706;29;45541;-64
2022/11/27 10:54:36;;;;;;;;;11.50;10.00;;;;;10.27;73.51;101472.53;4860888;29;45493;-64
2022/11/27 10:57:17;;;;;;;;;14.25;11.00;;;;;10.33;73.31;101476.00;4860258;29;46090;-64
2022/11/27 10:59:53;;;;;;;;;11.00;11.00;;;;;10.26;73.50;101469.00;4861014;29;45794;-64
2022/11/27 11:02:31;;;;;;;;;12.00;10.00;;;;;10.32;73.58;101474.28;4861209;29;45854;-64
2022/11/27 11:04:56;;;;;;;;;11.50;11.25;;;;;10.36;73.68;101469.75;4842954;29;45764;-62
2022/11/27 11:07:28;;;;;;;;;10.75;10.25;;;;;10.23;73.50;101450.38;4842623;29;46961;-65
2022/11/27 11:09:55;;;;;;;;;13.25;10.75;;;;;10.36;74.00;101464.41;4860799;29;45958;-65
2022/11/27 11:12:22;;;;;;;;;8.75;4.00;;;;;10.14;73.42;101422.09;4844279;29;45460;-65
2022/11/27 11:14:57;;;;;;;;;14.00;10.50;;;;;10.29;73.29;101439.59;4843607;29;45569;-64
2022/11/27 11:17:33;;;;;;;;;16.75;13.75;;;;;10.47;73.77;101454.38;4843119;29;47058;-64
2022/11/27 11:19:58;;;;;;;;;12.00;10.75;;;;;10.53;72.93;101461.41;4843286;29;45799;-64
2022/11/27 11:22:24;;;;;;;;;3.00;2.00;;;;;10.26;73.45;101417.44;4857145;29;45517;-63
2022/11/27 11:24:52;;;;;;;;;15.00;11.00;;;;;10.56;73.33;101445.31;4846249;29;45764;-64
2022/11/27 11:27:29;;;;;;;;;10.50;10.00;;;;;10.53;72.87;101429.34;4862871;29;46187;-63
2022/11/27 11:30:00;;;;;;;;;10.50;10.50;;;;;10.53;72.51;101422.22;4850406;29;45637;-65
2022/11/27 11:32:43;;;;;;;;;11.75;9.50;;;;;10.47;72.39;101413.47;4869133;29;45742;-65
2022/11/27 11:35:31;;;;;;;;;13.50;11.50;;;;;10.57;72.94;101421.25;4843194;29;45603;-64
2022/11/27 11:38:04;;;;;;;;;13.50;10.00;;;;;10.38;72.81;101385.19;4846115;29;47297;-65